createdAt,value
2022-11-17T00:01:10.834Z,3.40
2022-11-17T00:03:44.031Z,3.50
2022-11-17T00:06:14.224Z,3.50
2022-11-17T00:08:43.091Z,3.50
2022-11-17T00:11:11.810Z,3.40
2022-11-17T00:13:58.012Z,3.40
2022-11-17T00:16:29.279Z,3.40
2022-11-17T00:19:16.800Z,3.40
2022-11-17T00:21:45.452Z,3.40
2022-11-17T00:24:17.807Z,3.40
2022-11-17T00:27:00.216Z,3.40
2022-11-17T00:29:29.206Z,3.40
2022-11-17T00:32:15.272Z,3.40
2022-11-17T00:34:49.040Z,3.40
2022-11-17T00:37:18.251Z,3.50
2022-11-17T00:39:46.921Z,3.40
2022-11-17T00:42:16.055Z,3.40
2022-11-17T00:44:44.960Z,3.40
2022-11-17T00:47:13.635Z,3.30
2022-11-17T00:49:42.274Z,3.30
2022-11-17T00:52:15.104Z,3.30
2022-11-17T00:54:43.775Z,3.30
2022-11-17T00:57:12.447Z,3.20
2022-11-17T00:59:41.062Z,3.20
2022-11-17T01:02:09.695Z,3.20
2022-11-17T01:04:38.301Z,3.20
2022-11-17T01:07:07.069Z,3.30
2022-11-17T01:09:37.867Z,3.20
2022-11-17T01:12:06.951Z,3.20
2022-11-17T01:14:35.631Z,3.10
2022-11-17T01:17:04.252Z,3.10
2022-11-17T01:19:32.874Z,3.10
2022-11-17T01:22:01.507Z,3.10
2022-11-17T01:24:30.360Z,3.00
2022-11-17T01:27:00.466Z,3.00
2022-11-17T01:29:29.097Z,2.90
2022-11-17T01:31:57.756Z,2.90
2022-11-17T01:34:26.437Z,2.90
2022-11-17T01:37:12.485Z,2.90
2022-11-17T01:39:41.152Z,2.80
2022-11-17T01:42:16.466Z,2.80
2022-11-17T01:44:59.413Z,2.80
2022-11-17T01:47:36.468Z,2.80
2022-11-17T01:50:11.605Z,2.80
2022-11-17T01:52:42.094Z,2.90
2022-11-17T01:55:12.430Z,2.80
2022-11-17T01:57:46.674Z,2.90
2022-11-17T02:00:16.262Z,2.80
2022-11-17T02:02:46.686Z,2.80
2022-11-17T02:05:28.960Z,2.80
2022-11-17T02:08:01.114Z,2.80
2022-11-17T02:10:32.973Z,2.80
2022-11-17T02:13:03.716Z,2.80
2022-11-17T02:15:32.377Z,2.80
2022-11-17T02:18:01.374Z,2.80
2022-11-17T02:20:43.139Z,2.80
2022-11-17T02:23:51.430Z,2.80
2022-11-17T02:26:57.458Z,2.80
2022-11-17T02:29:33.525Z,2.80
2022-11-17T02:32:08.428Z,2.80
2022-11-17T02:34:44.690Z,2.80
2022-11-17T02:37:21.992Z,2.70
2022-11-17T02:40:00.368Z,2.70
2022-11-17T02:42:49.430Z,2.60
2022-11-17T02:45:24.129Z,2.50
2022-11-17T02:47:56.173Z,2.40
2022-11-17T02:50:28.660Z,2.30
2022-11-17T02:52:57.727Z,2.00
2022-11-17T02:55:27.834Z,1.90
2022-11-17T02:57:56.379Z,1.80
2022-11-17T03:00:28.302Z,1.70
2022-11-17T03:03:16.698Z,1.60
2022-11-17T03:05:52.792Z,1.60
2022-11-17T03:08:33.267Z,1.60
2022-11-17T03:11:04.332Z,1.60
2022-11-17T03:13:45.036Z,1.60
2022-11-17T03:16:25.684Z,1.60
2022-11-17T03:19:06.373Z,1.70
2022-11-17T03:21:41.044Z,1.70
2022-11-17T03:24:16.882Z,1.70
2022-11-17T03:26:49.965Z,1.70
2022-11-17T03:29:22.429Z,1.70
2022-11-17T03:31:58.425Z,1.80
2022-11-17T03:34:31.375Z,1.80
2022-11-17T03:37:03.100Z,1.80
2022-11-17T03:39:35.486Z,1.70
2022-11-17T03:42:08.499Z,1.80
2022-11-17T03:44:41.212Z,1.80
2022-11-17T03:47:18.839Z,1.70
2022-11-17T03:49:53.032Z,1.60
2022-11-17T03:52:22.727Z,1.70
2022-11-17T03:54:51.524Z,1.80
2022-11-17T03:57:27.920Z,1.70
2022-11-17T04:00:01.317Z,1.80
2022-11-17T04:02:31.525Z,1.70
2022-11-17T04:05:09.271Z,1.70
2022-11-17T04:07:40.361Z,1.70
2022-11-17T04:10:11.069Z,1.70
2022-11-17T04:12:57.201Z,1.70
2022-11-17T04:15:43.397Z,1.70
2022-11-17T04:18:13.574Z,1.80
2022-11-17T04:20:42.178Z,1.70
2022-11-17T04:23:14.317Z,1.70
2022-11-17T04:26:01.597Z,1.80
2022-11-17T04:28:40.867Z,1.70
2022-11-17T04:31:12.437Z,1.70
2022-11-17T04:33:44.102Z,1.70
2022-11-17T04:36:14.246Z,1.70
2022-11-17T04:38:44.240Z,1.70
2022-11-17T04:41:31.656Z,1.70
2022-11-17T04:44:00.507Z,1.80
2022-11-17T04:46:30.747Z,1.80
2022-11-17T04:49:01.307Z,1.80
2022-11-17T04:51:31.131Z,1.90
2022-11-17T04:54:00.380Z,1.90
2022-11-17T04:56:30.133Z,1.90
2022-11-17T04:58:59.099Z,1.90
2022-11-17T05:01:29.489Z,1.90
2022-11-17T05:04:00.750Z,2.00
2022-11-17T05:06:32.253Z,2.00
2022-11-17T05:09:02.301Z,2.00
2022-11-17T05:11:49.205Z,1.90
2022-11-17T05:14:20.673Z,2.00
2022-11-17T05:17:10.048Z,1.90
2022-11-17T05:19:44.397Z,1.90
2022-11-17T05:22:32.374Z,2.00
2022-11-17T05:25:01.643Z,1.90
2022-11-17T05:27:30.399Z,2.00
2022-11-17T05:29:59.237Z,2.00
2022-11-17T05:32:27.800Z,2.00
2022-11-17T05:34:57.877Z,2.00
2022-11-17T05:37:26.581Z,2.00
2022-11-17T05:39:57.208Z,2.00
2022-11-17T05:42:25.801Z,2.00
2022-11-17T05:44:54.816Z,2.00
2022-11-17T05:47:23.371Z,2.00
2022-11-17T05:49:51.928Z,2.00
2022-11-17T05:52:22.050Z,2.00
2022-11-17T05:54:50.780Z,2.00
2022-11-17T05:57:25.772Z,2.00
2022-11-17T06:00:00.841Z,2.00
2022-11-17T06:02:35.029Z,2.00
2022-11-17T06:05:04.278Z,1.90
2022-11-17T06:07:36.194Z,1.90
2022-11-17T06:10:05.197Z,1.90
2022-11-17T06:12:34.421Z,1.90
2022-11-17T06:15:03.722Z,1.90
2022-11-17T06:17:38.801Z,1.90
2022-11-17T06:20:11.257Z,1.90
2022-11-17T06:22:45.500Z,1.90
2022-11-17T06:25:18.478Z,2.00
2022-11-17T06:27:48.671Z,2.00
2022-11-17T06:30:18.117Z,2.00
2022-11-17T06:32:48.079Z,2.10
2022-11-17T06:35:17.662Z,2.10
2022-11-17T06:37:47.879Z,2.10
2022-11-17T06:40:17.633Z,2.10
2022-11-17T06:43:03.736Z,2.10
2022-11-17T06:45:35.070Z,2.10
2022-11-17T06:48:04.450Z,2.10
2022-11-17T06:50:33.719Z,2.10
2022-11-17T06:53:06.502Z,2.10
2022-11-17T06:55:37.028Z,2.10
2022-11-17T06:58:07.965Z,2.10
2022-11-17T07:00:37.905Z,2.10
2022-11-17T07:03:09.429Z,2.10
2022-11-17T07:05:40.422Z,2.10
2022-11-17T07:08:11.180Z,2.10
2022-11-17T07:10:42.632Z,2.10
2022-11-17T07:13:13.584Z,2.00
2022-11-17T07:15:42.575Z,2.00
2022-11-17T07:18:11.183Z,1.90
2022-11-17T07:20:40.029Z,2.00
2022-11-17T07:23:10.053Z,2.00
2022-11-17T07:25:38.773Z,2.00
2022-11-17T07:28:08.550Z,2.00
2022-11-17T07:30:37.358Z,2.00
2022-11-17T07:33:06.416Z,2.00
2022-11-17T07:35:38.634Z,2.10
2022-11-17T07:38:07.220Z,2.10
2022-11-17T07:40:37.375Z,2.10
2022-11-17T07:43:06.052Z,2.10
2022-11-17T07:45:34.994Z,2.00
2022-11-17T07:48:06.065Z,2.00
2022-11-17T07:50:37.295Z,2.10
2022-11-17T07:53:05.943Z,2.10
2022-11-17T07:55:34.687Z,2.10
2022-11-17T07:58:05.034Z,2.10
2022-11-17T08:00:34.042Z,2.30
2022-11-17T08:03:04.282Z,2.30
2022-11-17T08:05:37.075Z,2.20
2022-11-17T08:08:09.572Z,2.20
2022-11-17T08:10:38.150Z,2.20
2022-11-17T08:13:08.233Z,2.10
2022-11-17T08:15:36.969Z,2.10
2022-11-17T08:18:06.503Z,2.10
2022-11-17T08:20:35.052Z,2.10
2022-11-17T08:23:03.655Z,2.20
2022-11-17T08:25:32.277Z,2.20
2022-11-17T08:28:00.931Z,2.20
2022-11-17T08:30:33.740Z,2.20
2022-11-17T08:33:02.477Z,2.30
2022-11-17T08:35:37.296Z,2.30
2022-11-17T08:38:06.332Z,2.30
2022-11-17T08:40:35.469Z,2.30
2022-11-17T08:43:04.224Z,2.30
2022-11-17T08:45:34.374Z,2.30
2022-11-17T08:48:04.306Z,2.30
2022-11-17T08:50:32.953Z,2.30
2022-11-17T08:53:01.498Z,2.30
2022-11-17T08:55:30.200Z,2.40
2022-11-17T08:57:58.851Z,2.30
2022-11-17T09:00:27.594Z,2.30
2022-11-17T09:02:57.618Z,2.30
2022-11-17T09:05:26.331Z,2.20
2022-11-17T09:07:55.126Z,2.20
2022-11-17T09:10:23.818Z,2.30
2022-11-17T09:12:56.070Z,2.30
2022-11-17T09:15:25.110Z,2.30
2022-11-17T09:17:54.005Z,2.30
2022-11-17T09:20:24.249Z,2.30
2022-11-17T09:22:52.987Z,2.40
2022-11-17T09:25:21.782Z,2.40
2022-11-17T09:27:52.704Z,2.30
2022-11-17T09:30:22.593Z,2.30
2022-11-17T09:32:51.784Z,2.20
2022-11-17T09:35:20.711Z,2.10
2022-11-17T09:37:50.718Z,2.00
2022-11-17T09:40:21.322Z,2.00
2022-11-17T09:42:50.117Z,2.00
2022-11-17T09:45:23.242Z,2.00
2022-11-17T09:48:12.310Z,1.90
2022-11-17T09:50:42.859Z,1.90
2022-11-17T09:53:21.181Z,1.90
2022-11-17T09:55:52.512Z,1.90
2022-11-17T09:58:31.861Z,2.00
2022-11-17T10:01:00.706Z,2.00
2022-11-17T10:03:33.030Z,2.10
2022-11-17T10:06:07.368Z,2.20
2022-11-17T10:08:41.775Z,2.20
2022-11-17T10:11:27.652Z,2.20
2022-11-17T10:13:56.389Z,2.20
2022-11-17T10:16:25.153Z,2.20
2022-11-17T10:18:53.779Z,2.30
2022-11-17T10:21:22.451Z,2.30
2022-11-17T10:23:58.591Z,2.40
2022-11-17T10:26:28.251Z,2.40
2022-11-17T10:29:10.433Z,2.40
2022-11-17T10:31:44.077Z,2.40
2022-11-17T10:34:14.401Z,2.50
2022-11-17T10:36:50.208Z,2.50
2022-11-17T10:39:38.360Z,2.60
2022-11-17T10:42:22.559Z,2.60
2022-11-17T10:44:55.556Z,2.60
2022-11-17T10:47:32.999Z,2.70
2022-11-17T10:50:23.988Z,2.70
2022-11-17T10:52:54.462Z,2.80
2022-11-17T10:55:28.727Z,2.80
2022-11-17T10:58:02.429Z,2.90
2022-11-17T11:00:33.700Z,3.00
2022-11-17T11:03:08.436Z,3.00
2022-11-17T11:05:37.348Z,3.00
2022-11-17T11:08:20.236Z,3.10
2022-11-17T11:10:52.910Z,3.10
2022-11-17T11:13:27.504Z,3.10
2022-11-17T11:15:56.576Z,3.10
2022-11-17T11:18:25.519Z,3.10
2022-11-17T11:21:01.343Z,3.10
2022-11-17T11:23:42.144Z,3.10
2022-11-17T11:26:23.364Z,3.10
2022-11-17T11:29:06.769Z,3.20
2022-11-17T11:31:49.675Z,3.30
2022-11-17T11:34:37.097Z,3.30
2022-11-17T11:37:10.960Z,3.30
2022-11-17T11:39:49.687Z,3.20
2022-11-17T11:42:35.280Z,3.10
2022-11-17T11:45:20.315Z,3.10
2022-11-17T11:48:21.590Z,3.00
2022-11-17T11:50:59.965Z,2.90
2022-11-17T11:53:39.432Z,2.70
2022-11-17T11:56:17.724Z,2.40
2022-11-17T11:58:57.594Z,2.20
2022-11-17T12:01:37.485Z,2.00
2022-11-17T12:04:23.502Z,1.80
2022-11-17T12:07:07.182Z,1.60
2022-11-17T12:09:58.400Z,1.60
2022-11-17T12:12:54.188Z,1.60
2022-11-17T12:15:40.957Z,1.60
2022-11-17T12:18:19.049Z,1.60
2022-11-17T12:20:57.570Z,1.60
2022-11-17T12:23:55.900Z,1.80
2022-11-17T12:26:27.748Z,1.90
2022-11-17T12:29:33.216Z,1.90
2022-11-17T12:32:04.350Z,1.90
2022-11-17T12:34:37.818Z,1.90
2022-11-17T12:37:28.683Z,1.90
2022-11-17T12:40:03.207Z,1.90
2022-11-17T12:42:33.226Z,2.00
2022-11-17T12:45:04.103Z,2.10
2022-11-17T12:47:41.015Z,2.30
2022-11-17T12:50:43.458Z,2.50
2022-11-17T12:53:33.997Z,2.60
2022-11-17T12:56:42.285Z,2.50
2022-11-17T12:59:40.800Z,2.30
2022-11-17T13:02:24.608Z,2.10
2022-11-17T13:04:59.835Z,2.00
2022-11-17T13:07:28.893Z,2.00
2022-11-17T13:09:59.351Z,1.80
2022-11-17T13:12:31.823Z,1.80
2022-11-17T13:15:03.135Z,1.80
2022-11-17T13:17:34.821Z,1.80
2022-11-17T13:20:20.655Z,1.70
2022-11-17T13:23:01.191Z,1.70
2022-11-17T13:25:30.049Z,1.60
2022-11-17T13:28:04.431Z,1.50
2022-11-17T13:30:34.925Z,1.50
2022-11-17T13:33:05.102Z,1.40
2022-11-17T13:35:37.376Z,1.40
2022-11-17T13:38:08.334Z,1.40
2022-11-17T13:40:38.436Z,1.40
2022-11-17T13:43:08.907Z,1.30
2022-11-17T13:45:37.951Z,1.30
2022-11-17T13:48:06.811Z,1.20
2022-11-17T13:50:39.750Z,1.10
2022-11-17T13:53:24.935Z,1.10
2022-11-17T13:55:54.837Z,1.00
2022-11-17T13:58:36.084Z,0.90
2022-11-17T14:01:05.151Z,0.80
2022-11-17T14:03:36.476Z,0.80
2022-11-17T14:06:09.097Z,0.70
2022-11-17T14:08:39.478Z,0.70
2022-11-17T14:11:23.315Z,0.60
2022-11-17T14:13:54.306Z,0.50
2022-11-17T14:16:30.182Z,0.40
2022-11-17T14:19:02.213Z,0.40
2022-11-17T14:21:38.179Z,0.30
2022-11-17T14:24:12.382Z,0.20
2022-11-17T14:26:45.104Z,0.10
2022-11-17T14:29:14.982Z,0.10
2022-11-17T14:31:43.698Z,0.00
2022-11-17T14:34:12.901Z,0.00
2022-11-17T14:36:43.271Z,-0.10
2022-11-17T14:39:19.474Z,-0.20
2022-11-17T14:41:49.431Z,-0.30
2022-11-17T14:44:18.666Z,-0.40
2022-11-17T14:46:47.285Z,-0.40
2022-11-17T14:49:16.534Z,-0.50
2022-11-17T14:51:50.091Z,-0.60
2022-11-17T14:54:18.729Z,-0.70
2022-11-17T14:56:47.556Z,-0.80
2022-11-17T14:59:16.927Z,-0.90
2022-11-17T15:01:45.779Z,-1.00
2022-11-17T15:04:48.319Z,-1.10
2022-11-17T15:07:06.827Z,-1.10
2022-11-17T15:09:35.634Z,-1.20
2022-11-17T15:12:04.402Z,-1.30
2022-11-17T15:14:33.035Z,-1.40
2022-11-17T15:17:01.596Z,-1.40
2022-11-17T15:19:30.516Z,-1.50
2022-11-17T15:21:59.441Z,-1.50
2022-11-17T15:24:29.457Z,-1.60
2022-11-17T15:26:58.187Z,-1.60
2022-11-17T15:29:26.801Z,-1.60
2022-11-17T15:31:55.496Z,-1.70
2022-11-17T15:34:24.194Z,-1.70
2022-11-17T15:36:53.237Z,-1.60
2022-11-17T15:39:22.087Z,-1.60
2022-11-17T15:41:53.304Z,-1.40
2022-11-17T15:44:21.918Z,-1.30
2022-11-17T15:46:50.835Z,-1.20
2022-11-17T15:49:19.720Z,-1.10
2022-11-17T15:51:48.467Z,-1.10
2022-11-17T15:54:20.712Z,-1.00
2022-11-17T15:56:52.333Z,-0.90
2022-11-17T15:59:21.953Z,-0.90
2022-11-17T16:01:50.978Z,-0.90
2022-11-17T16:04:19.658Z,-0.80
2022-11-17T16:06:48.612Z,-1.00
2022-11-17T16:09:17.715Z,-1.00
2022-11-17T16:11:47.066Z,-1.10
2022-11-17T16:14:17.170Z,-1.20
2022-11-17T16:16:48.082Z,-1.10
2022-11-17T16:19:17.111Z,-1.20
2022-11-17T16:21:46.298Z,-1.30
2022-11-17T16:24:15.403Z,-1.30
2022-11-17T16:26:46.145Z,-1.40
2022-11-17T16:29:14.975Z,-1.50
2022-11-17T16:31:45.546Z,-1.60
2022-11-17T16:34:18.278Z,-1.70
2022-11-17T16:36:49.820Z,-1.70
2022-11-17T16:39:22.224Z,-1.70
2022-11-17T16:41:55.015Z,-1.80
2022-11-17T16:44:26.248Z,-1.80
2022-11-17T16:46:57.059Z,-1.80
2022-11-17T16:49:32.023Z,-1.70
2022-11-17T16:52:00.971Z,-1.50
2022-11-17T16:54:32.630Z,-1.40
2022-11-17T16:57:01.351Z,-1.10
2022-11-17T16:59:30.013Z,-1.00
2022-11-17T17:02:00.141Z,-0.90
2022-11-17T17:04:31.475Z,-0.70
2022-11-17T17:07:00.583Z,-0.70
2022-11-17T17:09:31.627Z,-0.50
2022-11-17T17:12:00.344Z,-0.50
2022-11-17T17:14:29.017Z,-0.40
2022-11-17T17:16:57.753Z,-0.40
2022-11-17T17:19:28.007Z,-0.30
2022-11-17T17:21:57.383Z,-0.30
2022-11-17T17:24:26.463Z,-0.20
2022-11-17T17:26:55.209Z,-0.20
2022-11-17T17:29:23.968Z,-0.10
2022-11-17T17:31:52.755Z,-0.10
2022-11-17T17:34:21.556Z,0.00
2022-11-17T17:36:51.734Z,0.00
2022-11-17T17:39:20.430Z,0.10
2022-11-17T17:41:49.110Z,0.00
2022-11-17T17:44:19.799Z,0.10
2022-11-17T17:46:48.983Z,0.00
2022-11-17T17:49:19.202Z,0.00
2022-11-17T17:51:48.329Z,-0.10
2022-11-17T17:54:20.343Z,-0.10
2022-11-17T17:56:49.509Z,-0.10
2022-11-17T17:59:18.390Z,0.00
2022-11-17T18:01:48.302Z,0.00
2022-11-17T18:04:17.457Z,0.00
2022-11-17T18:06:48.341Z,0.00
2022-11-17T18:09:20.638Z,-0.10
2022-11-17T18:11:51.345Z,-0.10
2022-11-17T18:14:24.331Z,-0.10
2022-11-17T18:16:53.470Z,-0.20
2022-11-17T18:19:22.436Z,-0.20
2022-11-17T18:21:51.600Z,-0.20
2022-11-17T18:24:21.753Z,-0.20
2022-11-17T18:26:50.385Z,-0.20
2022-11-17T18:29:20.213Z,-0.20
2022-11-17T18:31:49.781Z,-0.20
2022-11-17T18:34:21.236Z,-0.10
2022-11-17T18:36:50.366Z,-0.10
2022-11-17T18:39:21.463Z,0.00
2022-11-17T18:41:53.615Z,0.00
2022-11-17T18:44:22.677Z,0.00
2022-11-17T18:46:51.808Z,0.10
2022-11-17T18:49:20.733Z,0.10
2022-11-17T18:51:49.877Z,0.10
2022-11-17T18:54:18.634Z,0.10
2022-11-17T18:56:50.281Z,0.10
2022-11-17T18:59:19.406Z,0.00
2022-11-17T19:01:48.300Z,0.10
2022-11-17T19:04:18.422Z,0.10
2022-11-17T19:06:48.249Z,0.10
2022-11-17T19:09:18.121Z,0.10
2022-11-17T19:11:49.098Z,0.10
2022-11-17T19:14:17.888Z,0.20
2022-11-17T19:16:46.595Z,0.20
2022-11-17T19:19:16.142Z,0.10
2022-11-17T19:21:45.901Z,0.10
2022-11-17T19:24:15.421Z,0.10
2022-11-17T19:26:44.268Z,0.00
2022-11-17T19:29:17.454Z,0.00
2022-11-17T19:31:47.141Z,0.00
2022-11-17T19:34:16.194Z,0.10
2022-11-17T19:36:45.458Z,0.10
2022-11-17T19:39:15.415Z,0.10
2022-11-17T19:41:45.422Z,0.10
2022-11-17T19:44:15.965Z,0.00
2022-11-17T19:46:44.617Z,0.00
2022-11-17T19:49:13.658Z,0.00
2022-11-17T19:51:43.018Z,0.10
2022-11-17T19:54:13.719Z,0.10
2022-11-17T19:56:42.314Z,0.10
2022-11-17T19:59:15.635Z,0.10
2022-11-17T20:01:47.338Z,0.20
2022-11-17T20:04:16.203Z,0.20
2022-11-17T20:06:45.188Z,0.20
2022-11-17T20:09:15.987Z,0.20
2022-11-17T20:11:45.177Z,0.20
2022-11-17T20:14:14.673Z,0.20
2022-11-17T20:16:43.458Z,0.20
2022-11-17T20:19:17.616Z,0.20
2022-11-17T20:21:48.495Z,0.10
2022-11-17T20:24:17.162Z,0.10
2022-11-17T20:26:46.512Z,0.10
2022-11-17T20:29:15.433Z,0.10
2022-11-17T20:31:44.323Z,0.10
2022-11-17T20:34:14.682Z,0.10
2022-11-17T20:36:45.253Z,0.10
2022-11-17T20:39:15.940Z,0.10
2022-11-17T20:41:44.874Z,0.10
2022-11-17T20:44:24.994Z,0.10
2022-11-17T20:46:55.308Z,0.10
2022-11-17T20:49:24.344Z,0.10
2022-11-17T20:51:54.448Z,0.20
2022-11-17T20:54:23.709Z,0.10
2022-11-17T20:56:52.402Z,0.10
2022-11-17T20:59:21.383Z,0.10
2022-11-17T21:01:50.739Z,-0.10
2022-11-17T21:04:19.496Z,-0.20
2022-11-17T21:06:48.958Z,-0.20
2022-11-17T21:09:19.571Z,-0.30
2022-11-17T21:12:00.720Z,-0.30
2022-11-17T21:14:31.087Z,-0.30
2022-11-17T21:17:01.747Z,-0.30
2022-11-17T21:19:32.347Z,-0.30
2022-11-17T21:22:02.961Z,-0.40
2022-11-17T21:24:33.139Z,-0.50
2022-11-17T21:27:04.721Z,-0.60
2022-11-17T21:29:35.487Z,-0.60
2022-11-17T21:32:04.121Z,-0.80
2022-11-17T21:34:36.421Z,-0.70
2022-11-17T21:37:05.916Z,-0.60
2022-11-17T21:39:39.614Z,-0.50
2022-11-17T21:42:22.032Z,-0.50
2022-11-17T21:44:57.275Z,-0.60
2022-11-17T21:47:26.185Z,-0.60
2022-11-17T21:49:58.891Z,-0.70
2022-11-17T21:52:27.504Z,-0.70
2022-11-17T21:54:58.875Z,-0.70
2022-11-17T21:57:33.377Z,-0.70
2022-11-17T22:00:02.047Z,-0.60
2022-11-17T22:02:35.405Z,-0.60
2022-11-17T22:05:04.366Z,-0.50
2022-11-17T22:07:35.302Z,-0.50
2022-11-17T22:10:08.970Z,-0.40
2022-11-17T22:12:38.234Z,-0.40
2022-11-17T22:15:11.768Z,-0.30
2022-11-17T22:17:40.876Z,-0.30
2022-11-17T22:20:11.301Z,-0.30
2022-11-17T22:22:40.165Z,-0.30
2022-11-17T22:25:37.606Z,-0.40
2022-11-17T22:27:59.795Z,-0.50
2022-11-17T22:30:28.550Z,-0.50
2022-11-17T22:32:57.322Z,-0.50
2022-11-17T22:35:26.897Z,-0.50
2022-11-17T22:37:55.599Z,-0.50
2022-11-17T22:40:25.844Z,-0.50
2022-11-17T22:42:54.577Z,-0.40
2022-11-17T22:45:23.323Z,-0.40
2022-11-17T22:47:51.912Z,-0.40
2022-11-17T22:50:20.657Z,-0.40
2022-11-17T22:52:49.357Z,-0.30
2022-11-17T22:55:18.110Z,-0.30
2022-11-17T22:57:48.268Z,-0.30
2022-11-17T23:00:18.277Z,-0.30
2022-11-17T23:02:47.033Z,-0.30
2022-11-17T23:05:15.808Z,-0.20
2022-11-17T23:07:44.921Z,-0.30
2022-11-17T23:10:14.324Z,-0.30
2022-11-17T23:12:43.259Z,-0.30
2022-11-17T23:15:13.548Z,-0.20
2022-11-17T23:17:43.007Z,-0.30
2022-11-17T23:20:12.456Z,-0.30
2022-11-17T23:22:41.205Z,-0.20
2022-11-17T23:25:10.531Z,-0.30
2022-11-17T23:27:39.270Z,-0.30
2022-11-17T23:30:09.054Z,-0.30
2022-11-17T23:32:39.129Z,-0.40
2022-11-17T23:35:08.700Z,-0.40
2022-11-17T23:37:40.303Z,-0.30
2022-11-17T23:40:10.324Z,-0.30
2022-11-17T23:42:43.112Z,-0.30
2022-11-17T23:45:13.239Z,-0.20
2022-11-17T23:47:43.349Z,-0.20
2022-11-17T23:50:12.182Z,-0.20
2022-11-17T23:52:40.985Z,-0.30
2022-11-17T23:55:10.028Z,-0.30
2022-11-17T23:57:38.667Z,-0.20
